sensor_id;sensor_type;location;lat;lon;timestamp;temperature;humidity
21353;DHT22;10834;52.268;6.770;2023-11-19T00:00:57;11.20;99.90
21353;DHT22;10834;52.268;6.770;2023-11-19T00:03:41;11.20;99.90
21353;DHT22;10834;52.268;6.770;2023-11-19T00:06:25;11.20;99.90
21353;DHT22;10834;52.268;6.770;2023-11-19T00:09:09;11.30;99.90
21353;DHT22;10834;52.268;6.770;2023-11-19T00:11:54;11.30;99.90
21353;DHT22;10834;52.268;6.770;2023-11-19T00:14:38;11.40;99.90
21353;DHT22;10834;52.268;6.770;2023-11-19T00:17:23;11.40;99.90
21353;DHT22;10834;52.268;6.770;2023-11-19T00:20:07;11.40;99.90
21353;DHT22;10834;52.268;6.770;2023-11-19T00:22:52;11.50;99.90
21353;DHT22;10834;52.268;6.770;2023-11-19T00:25:36;11.50;99.90
21353;DHT22;10834;52.268;6.770;2023-11-19T00:28:22;11.50;99.90
21353;DHT22;10834;52.268;6.770;2023-11-19T00:31:08;11.50;99.90
21353;DHT22;10834;52.268;6.770;2023-11-19T00:33:52;11.60;99.90
21353;DHT22;10834;52.268;6.770;2023-11-19T00:36:36;11.60;99.90
21353;DHT22;10834;52.268;6.770;2023-11-19T00:39:20;11.70;99.90
21353;DHT22;10834;52.268;6.770;2023-11-19T00:42:05;11.70;99.90
21353;DHT22;10834;52.268;6.770;2023-11-19T00:44:50;11.70;99.90
21353;DHT22;10834;52.268;6.770;2023-11-19T00:47:34;11.70;99.90
21353;DHT22;10834;52.268;6.770;2023-11-19T00:50:19;11.70;99.90
21353;DHT22;10834;52.268;6.770;2023-11-19T00:53:03;11.70;99.90
21353;DHT22;10834;52.268;6.770;2023-11-19T00:55:48;11.80;99.90
21353;DHT22;10834;52.268;6.770;2023-11-19T00:58:32;11.80;99.90
21353;DHT22;10834;52.268;6.770;2023-11-19T01:01:16;11.80;99.90
21353;DHT22;10834;52.268;6.770;2023-11-19T01:04:00;11.80;99.90
21353;DHT22;10834;52.268;6.770;2023-11-19T01:06:45;11.80;99.90
21353;DHT22;10834;52.268;6.770;2023-11-19T01:09:30;11.80;99.90
21353;DHT22;10834;52.268;6.770;2023-11-19T01:12:16;11.90;99.90
21353;DHT22;10834;52.268;6.770;2023-11-19T01:15:00;11.90;99.90
21353;DHT22;10834;52.268;6.770;2023-11-19T01:17:45;11.90;99.90
21353;DHT22;10834;52.268;6.770;2023-11-19T01:20:29;11.90;99.90
21353;DHT22;10834;52.268;6.770;2023-11-19T01:23:13;11.90;99.90
21353;DHT22;10834;52.268;6.770;2023-11-19T01:25:57;11.90;99.90
21353;DHT22;10834;52.268;6.770;2023-11-19T01:28:42;11.90;99.90
21353;DHT22;10834;52.268;6.770;2023-11-19T01:31:29;11.90;99.90
21353;DHT22;10834;52.268;6.770;2023-11-19T01:34:13;12.00;99.90
21353;DHT22;10834;52.268;6.770;2023-11-19T01:36:57;12.00;99.90
21353;DHT22;10834;52.268;6.770;2023-11-19T01:39:44;12.00;99.90
21353;DHT22;10834;52.268;6.770;2023-11-19T01:42:29;12.00;99.90
21353;DHT22;10834;52.268;6.770;2023-11-19T01:45:25;12.00;99.90
21353;DHT22;10834;52.268;6.770;2023-11-19T01:48:13;12.00;99.90
21353;DHT22;10834;52.268;6.770;2023-11-19T01:50:58;12.00;99.90
21353;DHT22;10834;52.268;6.770;2023-11-19T01:53:44;12.00;99.90
21353;DHT22;10834;52.268;6.770;2023-11-19T01:56:29;12.10;99.90
21353;DHT22;10834;52.268;6.770;2023-11-19T01:59:14;12.10;99.90
21353;DHT22;10834;52.268;6.770;2023-11-19T02:01:59;12.10;99.90
21353;DHT22;10834;52.268;6.770;2023-11-19T02:04:44;12.10;99.90
21353;DHT22;10834;52.268;6.770;2023-11-19T02:07:29;12.10;99.90
21353;DHT22;10834;52.268;6.770;2023-11-19T02:10:13;12.10;99.90
21353;DHT22;10834;52.268;6.770;2023-11-19T02:12:59;12.10;99.90
21353;DHT22;10834;52.268;6.770;2023-11-19T02:15:43;12.10;99.90
21353;DHT22;10834;52.268;6.770;2023-11-19T02:18:28;12.10;99.90
21353;DHT22;10834;52.268;6.770;2023-11-19T02:21:12;12.10;99.90
21353;DHT22;10834;52.268;6.770;2023-11-19T02:23:59;12.10;99.90
21353;DHT22;10834;52.268;6.770;2023-11-19T02:27:05;12.10;99.90
21353;DHT22;10834;52.268;6.770;2023-11-19T02:29:52;12.10;99.90
21353;DHT22;10834;52.268;6.770;2023-11-19T02:32:37;12.10;99.90
21353;DHT22;10834;52.268;6.770;2023-11-19T02:35:25;12.00;99.90
21353;DHT22;10834;52.268;6.770;2023-11-19T02:38:10;12.00;99.90
21353;DHT22;10834;52.268;6.770;2023-11-19T02:40:54;12.00;99.90
21353;DHT22;10834;52.268;6.770;2023-11-19T02:43:38;12.10;99.90
21353;DHT22;10834;52.268;6.770;2023-11-19T02:46:22;12.10;99.90
21353;DHT22;10834;52.268;6.770;2023-11-19T02:49:06;12.10;99.90
21353;DHT22;10834;52.268;6.770;2023-11-19T02:51:50;12.10;99.90
21353;DHT22;10834;52.268;6.770;2023-11-19T02:54:34;12.10;99.90
21353;DHT22;10834;52.268;6.770;2023-11-19T02:57:18;12.10;99.90
21353;DHT22;10834;52.268;6.770;2023-11-19T03:00:07;12.10;99.90
21353;DHT22;10834;52.268;6.770;2023-11-19T03:02:56;12.10;99.90
21353;DHT22;10834;52.268;6.770;2023-11-19T03:05:43;12.10;99.90
21353;DHT22;10834;52.268;6.770;2023-11-19T03:08:28;12.10;99.90
21353;DHT22;10834;52.268;6.770;2023-11-19T03:11:14;12.10;99.90
21353;DHT22;10834;52.268;6.770;2023-11-19T03:13:58;12.10;99.90
21353;DHT22;10834;52.268;6.770;2023-11-19T03:16:45;12.00;99.90
21353;DHT22;10834;52.268;6.770;2023-11-19T03:19:30;12.10;99.90
21353;DHT22;10834;52.268;6.770;2023-11-19T03:22:14;12.00;99.90
21353;DHT22;10834;52.268;6.770;2023-11-19T03:24:58;11.90;99.90
21353;DHT22;10834;52.268;6.770;2023-11-19T03:27:43;11.90;99.90
21353;DHT22;10834;52.268;6.770;2023-11-19T03:30:27;11.90;99.90
21353;DHT22;10834;52.268;6.770;2023-11-19T03:33:12;11.90;99.90
21353;DHT22;10834;52.268;6.770;2023-11-19T03:35:56;11.80;99.90
21353;DHT22;10834;52.268;6.770;2023-11-19T03:38:40;11.80;99.90
21353;DHT22;10834;52.268;6.770;2023-11-19T03:41:26;11.70;99.90
21353;DHT22;10834;52.268;6.770;2023-11-19T03:44:11;11.70;99.90
21353;DHT22;10834;52.268;6.770;2023-11-19T03:46:55;11.60;99.90
21353;DHT22;10834;52.268;6.770;2023-11-19T03:49:39;11.50;99.90
21353;DHT22;10834;52.268;6.770;2023-11-19T03:52:23;11.50;99.90
21353;DHT22;10834;52.268;6.770;2023-11-19T03:55:08;11.50;99.90
21353;DHT22;10834;52.268;6.770;2023-11-19T03:57:52;11.40;99.90
21353;DHT22;10834;52.268;6.770;2023-11-19T04:00:36;11.40;99.90
21353;DHT22;10834;52.268;6.770;2023-11-19T04:03:20;11.50;99.90
21353;DHT22;10834;52.268;6.770;2023-11-19T04:06:04;11.50;99.90
21353;DHT22;10834;52.268;6.770;2023-11-19T04:08:49;11.50;99.90
21353;DHT22;10834;52.268;6.770;2023-11-19T04:11:33;11.60;99.90
21353;DHT22;10834;52.268;6.770;2023-11-19T04:14:17;11.60;99.90
21353;DHT22;10834;52.268;6.770;2023-11-19T04:17:02;11.50;99.90
21353;DHT22;10834;52.268;6.770;2023-11-19T04:19:46;11.50;99.90
21353;DHT22;10834;52.268;6.770;2023-11-19T04:22:30;11.40;99.90
21353;DHT22;10834;52.268;6.770;2023-11-19T04:25:15;11.40;99.90
21353;DHT22;10834;52.268;6.770;2023-11-19T04:28:00;11.30;99.90
21353;DHT22;10834;52.268;6.770;2023-11-19T04:30:44;11.20;99.90
21353;DHT22;10834;52.268;6.770;2023-11-19T04:33:28;11.10;99.90
21353;DHT22;10834;52.268;6.770;2023-11-19T04:36:13;11.10;99.90
21353;DHT22;10834;52.268;6.770;2023-11-19T04:38:58;11.00;99.90
21353;DHT22;10834;52.268;6.770;2023-11-19T04:41:47;10.90;99.90
21353;DHT22;10834;52.268;6.770;2023-11-19T04:44:33;10.90;99.90
21353;DHT22;10834;52.268;6.770;2023-11-19T04:47:17;10.90;99.90
21353;DHT22;10834;52.268;6.770;2023-11-19T04:50:02;10.90;99.90
21353;DHT22;10834;52.268;6.770;2023-11-19T04:52:46;10.80;99.90
21353;DHT22;10834;52.268;6.770;2023-11-19T04:55:30;10.80;99.90
21353;DHT22;10834;52.268;6.770;2023-11-19T04:58:14;10.70;99.90
21353;DHT22;10834;52.268;6.770;2023-11-19T05:00:58;10.70;99.90
21353;DHT22;10834;52.268;6.770;2023-11-19T05:03:43;10.70;99.90
21353;DHT22;10834;52.268;6.770;2023-11-19T05:06:31;10.70;99.90
21353;DHT22;10834;52.268;6.770;2023-11-19T05:09:15;10.70;99.90
21353;DHT22;10834;52.268;6.770;2023-11-19T05:11:59;10.80;99.90
21353;DHT22;10834;52.268;6.770;2023-11-19T05:14:43;10.90;99.90
21353;DHT22;10834;52.268;6.770;2023-11-19T05:17:33;10.90;99.90
21353;DHT22;10834;52.268;6.770;2023-11-19T05:20:18;11.00;99.90
21353;DHT22;10834;52.268;6.770;2023-11-19T05:23:02;11.00;99.90
21353;DHT22;10834;52.268;6.770;2023-11-19T05:25:46;11.00;99.90
21353;DHT22;10834;52.268;6.770;2023-11-19T05:28:31;11.00;99.90
21353;DHT22;10834;52.268;6.770;2023-11-19T05:31:17;11.10;99.90
21353;DHT22;10834;52.268;6.770;2023-11-19T05:34:01;11.00;99.90
21353;DHT22;10834;52.268;6.770;2023-11-19T05:36:46;11.10;99.90
21353;DHT22;10834;52.268;6.770;2023-11-19T05:39:30;11.10;99.90
21353;DHT22;10834;52.268;6.770;2023-11-19T05:42:14;11.10;99.90
21353;DHT22;10834;52.268;6.770;2023-11-19T05:44:58;11.20;99.90
21353;DHT22;10834;52.268;6.770;2023-11-19T05:47:42;11.20;99.90
21353;DHT22;10834;52.268;6.770;2023-11-19T05:50:26;11.20;99.90
21353;DHT22;10834;52.268;6.770;2023-11-19T05:53:10;11.20;99.90
21353;DHT22;10834;52.268;6.770;2023-11-19T05:55:57;11.20;99.90
21353;DHT22;10834;52.268;6.770;2023-11-19T05:58:42;11.20;99.90
21353;DHT22;10834;52.268;6.770;2023-11-19T06:01:29;11.20;99.90
21353;DHT22;10834;52.268;6.770;2023-11-19T06:04:13;11.20;99.90
21353;DHT22;10834;52.268;6.770;2023-11-19T06:06:57;11.20;99.90
21353;DHT22;10834;52.268;6.770;2023-11-19T06:09:41;11.20;99.90
21353;DHT22;10834;52.268;6.770;2023-11-19T06:12:26;11.20;99.90
21353;DHT22;10834;52.268;6.770;2023-11-19T06:15:11;11.20;99.90
21353;DHT22;10834;52.268;6.770;2023-11-19T06:17:56;11.20;99.90
21353;DHT22;10834;52.268;6.770;2023-11-19T06:20:42;11.20;99.90
21353;DHT22;10834;52.268;6.770;2023-11-19T06:23:27;11.20;99.90
21353;DHT22;10834;52.268;6.770;2023-11-19T06:26:11;11.30;99.90
21353;DHT22;10834;52.268;6.770;2023-11-19T06:28:55;11.30;99.90
21353;DHT22;10834;52.268;6.770;2023-11-19T06:31:40;11.30;99.90
21353;DHT22;10834;52.268;6.770;2023-11-19T06:34:25;11.30;99.90
21353;DHT22;10834;52.268;6.770;2023-11-19T06:37:09;11.30;99.90
21353;DHT22;10834;52.268;6.770;2023-11-19T06:39:53;11.20;99.90
21353;DHT22;10834;52.268;6.770;2023-11-19T06:42:38;11.20;99.90
21353;DHT22;10834;52.268;6.770;2023-11-19T06:45:23;11.20;99.90
21353;DHT22;10834;52.268;6.770;2023-11-19T06:48:07;11.20;99.90
21353;DHT22;10834;52.268;6.770;2023-11-19T06:50:51;11.10;99.90
21353;DHT22;10834;52.268;6.770;2023-11-19T06:53:35;11.10;99.90
21353;DHT22;10834;52.268;6.770;2023-11-19T06:56:20;11.10;99.90
21353;DHT22;10834;52.268;6.770;2023-11-19T06:59:05;11.10;99.90
21353;DHT22;10834;52.268;6.770;2023-11-19T07:01:50;11.10;99.90
21353;DHT22;10834;52.268;6.770;2023-11-19T07:04:34;11.10;99.90
21353;DHT22;10834;52.268;6.770;2023-11-19T07:07:18;11.10;99.90
21353;DHT22;10834;52.268;6.770;2023-11-19T07:10:02;11.10;99.90
21353;DHT22;10834;52.268;6.770;2023-11-19T07:12:48;11.10;99.90
21353;DHT22;10834;52.268;6.770;2023-11-19T07:15:34;11.00;99.90
21353;DHT22;10834;52.268;6.770;2023-11-19T07:18:18;11.00;99.90
21353;DHT22;10834;52.268;6.770;2023-11-19T07:21:04;11.00;99.90
21353;DHT22;10834;52.268;6.770;2023-11-19T07:23:48;10.90;99.90
21353;DHT22;10834;52.268;6.770;2023-11-19T07:26:33;11.00;99.90
21353;DHT22;10834;52.268;6.770;2023-11-19T07:29:17;11.00;99.90
21353;DHT22;10834;52.268;6.770;2023-11-19T07:32:01;11.10;99.90
21353;DHT22;10834;52.268;6.770;2023-11-19T07:34:46;11.10;99.90
21353;DHT22;10834;52.268;6.770;2023-11-19T07:37:30;11.10;99.90
21353;DHT22;10834;52.268;6.770;2023-11-19T07:40:14;11.20;99.90
21353;DHT22;10834;52.268;6.770;2023-11-19T07:42:58;11.20;99.90
21353;DHT22;10834;52.268;6.770;2023-11-19T07:45:42;11.20;99.90
21353;DHT22;10834;52.268;6.770;2023-11-19T07:48:29;11.30;99.90
21353;DHT22;10834;52.268;6.770;2023-11-19T07:51:14;11.40;99.90
21353;DHT22;10834;52.268;6.770;2023-11-19T07:53:59;11.40;99.90
21353;DHT22;10834;52.268;6.770;2023-11-19T07:56:42;11.40;99.90
21353;DHT22;10834;52.268;6.770;2023-11-19T07:59:27;11.40;99.90
21353;DHT22;10834;52.268;6.770;2023-11-19T08:02:11;11.50;99.90
21353;DHT22;10834;52.268;6.770;2023-11-19T08:04:55;11.50;99.90
21353;DHT22;10834;52.268;6.770;2023-11-19T08:07:39;11.60;99.90
21353;DHT22;10834;52.268;6.770;2023-11-19T08:10:23;11.60;99.90
21353;DHT22;10834;52.268;6.770;2023-11-19T08:13:07;11.60;99.90
21353;DHT22;10834;52.268;6.770;2023-11-19T08:15:51;11.60;99.90
21353;DHT22;10834;52.268;6.770;2023-11-19T08:18:36;11.60;99.90
21353;DHT22;10834;52.268;6.770;2023-11-19T08:21:20;11.70;99.90
21353;DHT22;10834;52.268;6.770;2023-11-19T08:24:06;11.70;99.90
21353;DHT22;10834;52.268;6.770;2023-11-19T08:26:50;11.80;99.90
21353;DHT22;10834;52.268;6.770;2023-11-19T08:29:34;11.90;99.90
21353;DHT22;10834;52.268;6.770;2023-11-19T08:32:18;12.00;99.90
21353;DHT22;10834;52.268;6.770;2023-11-19T08:35:02;12.20;99.90
21353;DHT22;10834;52.268;6.770;2023-11-19T08:37:47;12.20;99.90
21353;DHT22;10834;52.268;6.770;2023-11-19T08:40:31;12.30;99.90
21353;DHT22;10834;52.268;6.770;2023-11-19T08:43:15;12.40;99.90
21353;DHT22;10834;52.268;6.770;2023-11-19T08:46:00;12.70;99.90
21353;DHT22;10834;52.268;6.770;2023-11-19T08:48:44;12.90;99.90
21353;DHT22;10834;52.268;6.770;2023-11-19T08:51:29;13.10;99.90
21353;DHT22;10834;52.268;6.770;2023-11-19T08:54:14;13.20;99.90
21353;DHT22;10834;52.268;6.770;2023-11-19T08:56:57;13.30;99.90
21353;DHT22;10834;52.268;6.770;2023-11-19T08:59:41;13.40;99.90
21353;DHT22;10834;52.268;6.770;2023-11-19T09:02:25;13.40;99.90
21353;DHT22;10834;52.268;6.770;2023-11-19T09:05:10;13.50;99.90
21353;DHT22;10834;52.268;6.770;2023-11-19T09:07:54;13.60;99.90
21353;DHT22;10834;52.268;6.770;2023-11-19T09:10:38;13.70;99.90
21353;DHT22;10834;52.268;6.770;2023-11-19T09:13:23;13.70;99.90
21353;DHT22;10834;52.268;6.770;2023-11-19T09:16:07;13.80;99.90
21353;DHT22;10834;52.268;6.770;2023-11-19T09:18:52;14.00;99.90
21353;DHT22;10834;52.268;6.770;2023-11-19T09:21:36;13.90;99.90
21353;DHT22;10834;52.268;6.770;2023-11-19T09:24:23;13.80;99.90
21353;DHT22;10834;52.268;6.770;2023-11-19T09:27:07;13.60;99.90
21353;DHT22;10834;52.268;6.770;2023-11-19T09:29:51;13.50;99.90
21353;DHT22;10834;52.268;6.770;2023-11-19T09:32:41;13.50;99.90
21353;DHT22;10834;52.268;6.770;2023-11-19T09:35:25;13.40;99.90
21353;DHT22;10834;52.268;6.770;2023-11-19T09:38:09;13.30;99.90
21353;DHT22;10834;52.268;6.770;2023-11-19T09:40:53;13.30;99.90
21353;DHT22;10834;52.268;6.770;2023-11-19T09:43:39;13.30;99.90
21353;DHT22;10834;52.268;6.770;2023-11-19T09:46:23;13.20;99.90
21353;DHT22;10834;52.268;6.770;2023-11-19T09:49:08;13.30;99.90
21353;DHT22;10834;52.268;6.770;2023-11-19T09:51:54;13.20;99.90
21353;DHT22;10834;52.268;6.770;2023-11-19T09:54:38;13.10;99.90
21353;DHT22;10834;52.268;6.770;2023-11-19T09:57:22;13.10;99.90
21353;DHT22;10834;52.268;6.770;2023-11-19T10:00:08;13.00;99.90
21353;DHT22;10834;52.268;6.770;2023-11-19T10:02:54;12.90;99.90
21353;DHT22;10834;52.268;6.770;2023-11-19T10:05:41;12.90;99.90
21353;DHT22;10834;52.268;6.770;2023-11-19T10:08:25;12.90;99.90
21353;DHT22;10834;52.268;6.770;2023-11-19T10:11:09;12.80;99.90
21353;DHT22;10834;52.268;6.770;2023-11-19T10:13:58;12.80;99.90
21353;DHT22;10834;52.268;6.770;2023-11-19T10:16:43;12.80;99.90
21353;DHT22;10834;52.268;6.770;2023-11-19T10:19:31;12.90;99.90
21353;DHT22;10834;52.268;6.770;2023-11-19T10:22:15;12.90;99.90
21353;DHT22;10834;52.268;6.770;2023-11-19T10:25:00;13.00;99.90
21353;DHT22;10834;52.268;6.770;2023-11-19T10:27:45;13.10;99.90
21353;DHT22;10834;52.268;6.770;2023-11-19T10:30:30;13.20;99.90
21353;DHT22;10834;52.268;6.770;2023-11-19T10:33:14;13.30;99.90
21353;DHT22;10834;52.268;6.770;2023-11-19T10:36:01;13.40;99.90
21353;DHT22;10834;52.268;6.770;2023-11-19T10:38:55;13.30;99.90
21353;DHT22;10834;52.268;6.770;2023-11-19T10:41:40;13.30;99.90
21353;DHT22;10834;52.268;6.770;2023-11-19T10:44:34;13.40;99.90
21353;DHT22;10834;52.268;6.770;2023-11-19T10:47:20;13.60;99.90
21353;DHT22;10834;52.268;6.770;2023-11-19T10:50:06;13.60;99.90
21353;DHT22;10834;52.268;6.770;2023-11-19T10:52:55;13.60;99.90
21353;DHT22;10834;52.268;6.770;2023-11-19T10:55:40;13.70;99.90
21353;DHT22;10834;52.268;6.770;2023-11-19T10:58:24;13.90;99.90
21353;DHT22;10834;52.268;6.770;2023-11-19T11:01:20;14.00;99.90
21353;DHT22;10834;52.268;6.770;2023-11-19T11:04:13;14.00;99.90
21353;DHT22;10834;52.268;6.770;2023-11-19T11:07:00;14.10;99.90
21353;DHT22;10834;52.268;6.770;2023-11-19T11:09:47;14.10;99.90
21353;DHT22;10834;52.268;6.770;2023-11-19T11:12:36;14.00;99.90
21353;DHT22;10834;52.268;6.770;2023-11-19T11:15:21;13.90;99.90
21353;DHT22;10834;52.268;6.770;2023-11-19T11:18:08;13.80;99.90
21353;DHT22;10834;52.268;6.770;2023-11-19T11:21:07;13.60;99.90
21353;DHT22;10834;52.268;6.770;2023-11-19T11:36:19;13.50;99.90
21353;DHT22;10834;52.268;6.770;2023-11-19T11:39:04;13.50;99.90
21353;DHT22;10834;52.268;6.770;2023-11-19T11:50:52;13.30;99.90
21353;DHT22;10834;52.268;6.770;2023-11-19T11:53:36;13.30;99.90
21353;DHT22;10834;52.268;6.770;2023-11-19T11:56:21;13.30;99.90
21353;DHT22;10834;52.268;6.770;2023-11-19T11:59:18;13.30;99.90
21353;DHT22;10834;52.268;6.770;2023-11-19T12:02:03;13.40;99.90
21353;DHT22;10834;52.268;6.770;2023-11-19T12:04:51;13.50;99.90
21353;DHT22;10834;52.268;6.770;2023-11-19T12:07:36;13.50;99.90
21353;DHT22;10834;52.268;6.770;2023-11-19T12:10:24;13.40;99.90
21353;DHT22;10834;52.268;6.770;2023-11-19T12:13:09;13.30;99.90
21353;DHT22;10834;52.268;6.770;2023-11-19T12:18:40;13.30;99.90
21353;DHT22;10834;52.268;6.770;2023-11-19T12:21:29;13.30;99.90
21353;DHT22;10834;52.268;6.770;2023-11-19T12:24:14;13.50;99.90
21353;DHT22;10834;52.268;6.770;2023-11-19T12:26:58;13.60;99.90
21353;DHT22;10834;52.268;6.770;2023-11-19T12:29:43;13.70;99.90
21353;DHT22;10834;52.268;6.770;2023-11-19T12:32:40;13.80;99.90
21353;DHT22;10834;52.268;6.770;2023-11-19T12:35:25;13.90;99.90
21353;DHT22;10834;52.268;6.770;2023-11-19T12:38:25;13.80;99.90
21353;DHT22;10834;52.268;6.770;2023-11-19T12:41:10;13.80;99.90
21353;DHT22;10834;52.268;6.770;2023-11-19T12:44:09;13.90;99.90
21353;DHT22;10834;52.268;6.770;2023-11-19T12:47:20;14.10;99.90
21353;DHT22;10834;52.268;6.770;2023-11-19T12:50:04;14.00;99.90
21353;DHT22;10834;52.268;6.770;2023-11-19T12:52:58;13.80;99.90
21353;DHT22;10834;52.268;6.770;2023-11-19T12:55:42;13.70;99.90
21353;DHT22;10834;52.268;6.770;2023-11-19T12:58:32;13.70;99.90
21353;DHT22;10834;52.268;6.770;2023-11-19T13:01:18;13.80;99.90
21353;DHT22;10834;52.268;6.770;2023-11-19T13:04:18;13.90;99.90
21353;DHT22;10834;52.268;6.770;2023-11-19T13:07:03;13.80;99.90
21353;DHT22;10834;52.268;6.770;2023-11-19T13:09:49;13.70;99.90
21353;DHT22;10834;52.268;6.770;2023-11-19T13:12:33;13.60;99.90
21353;DHT22;10834;52.268;6.770;2023-11-19T13:15:23;13.60;99.90
21353;DHT22;10834;52.268;6.770;2023-11-19T13:18:09;13.60;99.90
21353;DHT22;10834;52.268;6.770;2023-11-19T13:20:54;13.50;99.90
21353;DHT22;10834;52.268;6.770;2023-11-19T13:23:41;13.50;99.90
21353;DHT22;10834;52.268;6.770;2023-11-19T13:26:26;13.40;99.90
21353;DHT22;10834;52.268;6.770;2023-11-19T13:29:10;13.30;99.90
21353;DHT22;10834;52.268;6.770;2023-11-19T13:31:54;13.30;99.90
21353;DHT22;10834;52.268;6.770;2023-11-19T13:34:38;13.30;99.90
21353;DHT22;10834;52.268;6.770;2023-11-19T13:37:23;13.20;99.90
21353;DHT22;10834;52.268;6.770;2023-11-19T13:40:09;13.20;99.90
21353;DHT22;10834;52.268;6.770;2023-11-19T13:42:58;13.20;99.90
21353;DHT22;10834;52.268;6.770;2023-11-19T13:45:42;13.20;99.90
21353;DHT22;10834;52.268;6.770;2023-11-19T13:48:26;13.20;99.90
21353;DHT22;10834;52.268;6.770;2023-11-19T13:51:12;13.30;99.90
21353;DHT22;10834;52.268;6.770;2023-11-19T13:53:56;13.20;99.90
21353;DHT22;10834;52.268;6.770;2023-11-19T13:56:40;13.30;99.90
21353;DHT22;10834;52.268;6.770;2023-11-19T13:59:24;13.30;99.90
21353;DHT22;10834;52.268;6.770;2023-11-19T14:02:08;13.30;99.90
21353;DHT22;10834;52.268;6.770;2023-11-19T14:04:53;13.20;99.90
21353;DHT22;10834;52.268;6.770;2023-11-19T14:07:41;13.10;99.90
21353;DHT22;10834;52.268;6.770;2023-11-19T14:10:26;13.10;99.90
21353;DHT22;10834;52.268;6.770;2023-11-19T14:13:10;13.10;99.90
21353;DHT22;10834;52.268;6.770;2023-11-19T14:15:55;13.00;99.90
21353;DHT22;10834;52.268;6.770;2023-11-19T14:18:40;12.90;99.90
21353;DHT22;10834;52.268;6.770;2023-11-19T14:21:24;12.90;99.90
21353;DHT22;10834;52.268;6.770;2023-11-19T14:24:09;12.90;99.90
21353;DHT22;10834;52.268;6.770;2023-11-19T14:26:53;12.90;99.90
21353;DHT22;10834;52.268;6.770;2023-11-19T14:29:37;12.90;99.90
21353;DHT22;10834;52.268;6.770;2023-11-19T14:32:21;12.80;99.90
21353;DHT22;10834;52.268;6.770;2023-11-19T14:35:06;12.70;99.90
21353;DHT22;10834;52.268;6.770;2023-11-19T14:37:51;12.70;99.90
21353;DHT22;10834;52.268;6.770;2023-11-19T14:40:35;12.60;99.90
21353;DHT22;10834;52.268;6.770;2023-11-19T14:43:19;12.60;99.90
21353;DHT22;10834;52.268;6.770;2023-11-19T14:46:03;12.50;99.90
21353;DHT22;10834;52.268;6.770;2023-11-19T14:48:48;12.40;99.90
21353;DHT22;10834;52.268;6.770;2023-11-19T14:51:32;12.40;99.90
21353;DHT22;10834;52.268;6.770;2023-11-19T14:54:19;12.40;99.90
21353;DHT22;10834;52.268;6.770;2023-11-19T14:57:03;12.30;99.90
21353;DHT22;10834;52.268;6.770;2023-11-19T14:59:47;12.20;99.90
21353;DHT22;10834;52.268;6.770;2023-11-19T15:02:31;12.20;99.90
21353;DHT22;10834;52.268;6.770;2023-11-19T15:05:16;12.20;99.90
21353;DHT22;10834;52.268;6.770;2023-11-19T15:08:00;12.10;99.90
21353;DHT22;10834;52.268;6.770;2023-11-19T15:10:44;12.10;99.90
21353;DHT22;10834;52.268;6.770;2023-11-19T15:13:29;12.10;99.90
21353;DHT22;10834;52.268;6.770;2023-11-19T15:16:13;12.00;99.90
21353;DHT22;10834;52.268;6.770;2023-11-19T15:18:58;12.00;99.90
21353;DHT22;10834;52.268;6.770;2023-11-19T15:21:43;12.00;99.90
21353;DHT22;10834;52.268;6.770;2023-11-19T15:24:27;12.00;99.90
21353;DHT22;10834;52.268;6.770;2023-11-19T15:27:12;11.90;99.90
21353;DHT22;10834;52.268;6.770;2023-11-19T15:29:56;11.90;99.90
21353;DHT22;10834;52.268;6.770;2023-11-19T15:32:41;11.80;99.90
21353;DHT22;10834;52.268;6.770;2023-11-19T15:35:26;11.80;99.90
21353;DHT22;10834;52.268;6.770;2023-11-19T15:38:10;11.70;99.90
21353;DHT22;10834;52.268;6.770;2023-11-19T15:40:54;11.70;99.90
21353;DHT22;10834;52.268;6.770;2023-11-19T15:43:39;11.60;99.90
21353;DHT22;10834;52.268;6.770;2023-11-19T15:46:23;11.60;99.90
21353;DHT22;10834;52.268;6.770;2023-11-19T15:49:07;11.60;99.90
21353;DHT22;10834;52.268;6.770;2023-11-19T15:51:51;11.50;99.90
21353;DHT22;10834;52.268;6.770;2023-11-19T15:54:35;11.60;99.90
21353;DHT22;10834;52.268;6.770;2023-11-19T15:57:20;11.60;99.90
21353;DHT22;10834;52.268;6.770;2023-11-19T16:00:05;11.50;99.90
21353;DHT22;10834;52.268;6.770;2023-11-19T16:02:50;11.50;99.90
21353;DHT22;10834;52.268;6.770;2023-11-19T16:05:34;11.50;99.90
21353;DHT22;10834;52.268;6.770;2023-11-19T16:08:18;11.40;99.90
21353;DHT22;10834;52.268;6.770;2023-11-19T16:11:02;11.40;99.90
21353;DHT22;10834;52.268;6.770;2023-11-19T16:13:46;11.50;99.90
21353;DHT22;10834;52.268;6.770;2023-11-19T16:16:31;11.40;99.90
21353;DHT22;10834;52.268;6.770;2023-11-19T16:19:15;11.40;99.90
21353;DHT22;10834;52.268;6.770;2023-11-19T16:21:59;11.40;99.90
21353;DHT22;10834;52.268;6.770;2023-11-19T16:24:53;11.40;99.90
21353;DHT22;10834;52.268;6.770;2023-11-19T16:27:38;11.40;99.90
21353;DHT22;10834;52.268;6.770;2023-11-19T16:30:23;11.40;99.90
21353;DHT22;10834;52.268;6.770;2023-11-19T16:33:08;11.40;99.90
21353;DHT22;10834;52.268;6.770;2023-11-19T16:35:56;11.40;99.90
21353;DHT22;10834;52.268;6.770;2023-11-19T16:38:42;11.30;99.90
21353;DHT22;10834;52.268;6.770;2023-11-19T16:41:27;11.30;99.90
21353;DHT22;10834;52.268;6.770;2023-11-19T16:44:11;11.30;99.90
21353;DHT22;10834;52.268;6.770;2023-11-19T16:46:55;11.30;99.90
21353;DHT22;10834;52.268;6.770;2023-11-19T16:49:39;11.30;99.90
21353;DHT22;10834;52.268;6.770;2023-11-19T16:52:26;11.30;99.90
21353;DHT22;10834;52.268;6.770;2023-11-19T16:55:10;11.30;99.90
21353;DHT22;10834;52.268;6.770;2023-11-19T16:57:57;11.30;99.90
21353;DHT22;10834;52.268;6.770;2023-11-19T17:00:43;11.30;99.90
21353;DHT22;10834;52.268;6.770;2023-11-19T17:03:27;11.30;99.90
21353;DHT22;10834;52.268;6.770;2023-11-19T17:06:11;11.30;99.90
21353;DHT22;10834;52.268;6.770;2023-11-19T17:08:56;11.30;99.90
21353;DHT22;10834;52.268;6.770;2023-11-19T17:11:40;11.30;99.90
21353;DHT22;10834;52.268;6.770;2023-11-19T17:14:27;11.30;99.90
21353;DHT22;10834;52.268;6.770;2023-11-19T17:17:11;11.30;99.90
21353;DHT22;10834;52.268;6.770;2023-11-19T17:19:55;11.30;99.90
21353;DHT22;10834;52.268;6.770;2023-11-19T17:22:39;11.30;99.90
21353;DHT22;10834;52.268;6.770;2023-11-19T17:25:24;11.30;99.90
21353;DHT22;10834;52.268;6.770;2023-11-19T17:28:09;11.30;99.90
21353;DHT22;10834;52.268;6.770;2023-11-19T17:30:53;11.30;99.90
21353;DHT22;10834;52.268;6.770;2023-11-19T17:33:38;11.30;99.90
21353;DHT22;10834;52.268;6.770;2023-11-19T17:36:22;11.30;99.90
21353;DHT22;10834;52.268;6.770;2023-11-19T17:39:07;11.30;99.90
21353;DHT22;10834;52.268;6.770;2023-11-19T17:41:51;11.30;99.90
21353;DHT22;10834;52.268;6.770;2023-11-19T17:44:35;11.30;99.90
21353;DHT22;10834;52.268;6.770;2023-11-19T17:47:19;11.30;99.90